CYYZ/YYZ METAR and TAF weather

Enter ICAO airport designator
Station Type Date Time Source
CYYZ METAR 2021/09/16 11:00 UTC NOAA

CYYZ 161100Z 01003KT 15SM SCT030 BKN110 14/12 A3019 RMK SC4AC2 SLP227


Station Type Date Time Source
CYYZ Decoded METAR 2021/09/16 11:00 UTC NOAA

Toronto Pearson Int'L. Ont., Canada (CYYZ) 43-40N 079-38W 173M
Sep 16, 2021 - 07:00 AM EDT / 2021.09.16 1100 UTC
Wind: from the N (010 degrees) at 3 MPH (3 KT):0
Visibility: 15 mile(s):0
Sky conditions: mostly cloudy
Temperature: 57 F (14 C)
Dew Point: 53 F (12 C)
Relative Humidity: 87%
Pressure (altimeter): 30.19 in. Hg (1022 hPa)
ob: CYYZ 161100Z 01003KT 15SM SCT030 BKN110 14/12 A3019 RMK SC4AC2 SLP227
cycle: 11

Station Type Date Time Source
CYYZ TAF 2021/09/16 09:50 UTC NOAA

TAF CYYZ 160843Z 1609/1712 36006KT P6SM FEW040 PROB30 1609/1613 BKN008
FM161300 VRB03KT P6SM BKN030
BECMG 1614/1616 13010KT
FM162000 13010KT P6SM FEW030
BECMG 1623/1624 08008KT
FM170500 05006KT P6SM SCT020 PROB30 1708/1712 1SM BR
RMK NXT FCST BY 161200Z

Example: see airport list